createdAt,value
2022-09-10T00:01:32.402Z,89.57
2022-09-10T00:04:01.973Z,89.92
2022-09-10T00:06:32.603Z,89.90
2022-09-10T00:09:00.836Z,89.79
2022-09-10T00:11:31.797Z,89.83
2022-09-10T00:14:01.610Z,89.76
2022-09-10T00:16:30.712Z,89.77
2022-09-10T00:19:00.805Z,89.72
2022-09-10T00:21:37.914Z,89.83
2022-09-10T00:24:08.107Z,89.67
2022-09-10T00:26:44.847Z,89.85
2022-09-10T00:29:22.576Z,89.72
2022-09-10T00:31:51.488Z,89.55
2022-09-10T00:34:19.356Z,89.47
2022-09-10T00:36:47.062Z,89.21
2022-09-10T00:39:17.885Z,89.10
2022-09-10T00:41:47.876Z,89.13
2022-09-10T00:44:38.090Z,89.21
2022-09-10T00:47:22.003Z,89.02
2022-09-10T00:50:04.040Z,89.13
2022-09-10T00:52:36.403Z,89.31
2022-09-10T00:55:08.559Z,89.30
2022-09-10T00:57:39.011Z,88.95
2022-09-10T01:00:11.668Z,88.76
2022-09-10T01:02:41.061Z,88.53
2022-09-10T01:05:10.144Z,88.42
2022-09-10T01:07:38.040Z,88.61
2022-09-10T01:10:18.413Z,88.64
2022-09-10T01:13:21.610Z,88.40
2022-09-10T01:16:24.715Z,88.40
2022-09-10T01:19:17.287Z,88.46
2022-09-10T01:22:30.119Z,88.41
2022-09-10T01:25:17.914Z,88.38
2022-09-10T01:27:52.802Z,88.40
2022-09-10T01:30:35.400Z,88.00
2022-09-10T01:33:34.589Z,87.98
2022-09-10T01:36:20.435Z,87.71
2022-09-10T01:38:51.244Z,87.85
2022-09-10T01:41:25.572Z,87.26
2022-09-10T01:43:53.237Z,87.32
2022-09-10T01:46:45.131Z,87.15
2022-09-10T01:49:52.996Z,87.06
2022-09-10T01:52:51.577Z,86.88
2022-09-10T01:55:41.997Z,86.89
2022-09-10T01:58:33.108Z,86.90
2022-09-10T02:01:15.875Z,87.12
2022-09-10T02:03:46.458Z,86.92
2022-09-10T02:06:19.008Z,87.07
2022-09-10T02:08:49.879Z,87.10
2022-09-10T02:11:17.722Z,87.22
2022-09-10T02:13:49.305Z,87.30
2022-09-10T02:16:39.980Z,87.31
2022-09-10T02:19:07.844Z,87.55
2022-09-10T02:21:35.695Z,87.20
2022-09-10T02:24:10.424Z,87.25
2022-09-10T02:26:41.525Z,87.25
2022-09-10T02:29:13.451Z,87.22
2022-09-10T02:31:41.834Z,87.23
2022-09-10T02:34:11.959Z,87.34
2022-09-10T02:36:40.057Z,87.40
2022-09-10T02:39:08.093Z,87.40
2022-09-10T02:41:36.268Z,87.53
2022-09-10T02:44:04.097Z,87.48
2022-09-10T02:46:31.632Z,87.16
2022-09-10T02:48:59.423Z,87.18
2022-09-10T02:51:30.195Z,87.08
2022-09-10T02:53:58.880Z,87.12
2022-09-10T02:56:26.571Z,87.03
2022-09-10T02:58:54.170Z,87.37
2022-09-10T03:01:24.175Z,87.37
2022-09-10T03:04:02.968Z,87.03
2022-09-10T03:06:30.812Z,86.72
2022-09-10T03:08:58.927Z,86.51
2022-09-10T03:11:27.356Z,86.68
2022-09-10T03:13:55.535Z,86.81
2022-09-10T03:16:23.831Z,86.89
2022-09-10T03:18:51.795Z,86.88
2022-09-10T03:21:24.582Z,86.75
2022-09-10T03:23:56.301Z,86.64
2022-09-10T03:26:26.763Z,86.56
2022-09-10T03:28:54.741Z,86.75
2022-09-10T03:31:24.283Z,86.41
2022-09-10T03:33:51.866Z,86.24
2022-09-10T03:36:22.249Z,86.22
2022-09-10T03:38:50.005Z,86.30
2022-09-10T03:41:26.649Z,86.53
2022-09-10T03:43:57.371Z,86.72
2022-09-10T03:46:26.159Z,86.56
2022-09-10T03:48:56.613Z,86.61
2022-09-10T03:51:25.471Z,86.71
2022-09-10T03:53:52.928Z,86.89
2022-09-10T03:56:21.950Z,87.07
2022-09-10T03:58:49.852Z,87.15
2022-09-10T04:01:18.555Z,86.96
2022-09-10T04:03:47.270Z,86.83
2022-09-10T04:06:18.277Z,86.78
2022-09-10T04:08:49.659Z,86.91
2022-09-10T04:11:17.171Z,86.89
2022-09-10T04:13:47.948Z,86.64
2022-09-10T04:16:16.243Z,86.53
2022-09-10T04:18:45.633Z,86.57
2022-09-10T04:21:15.663Z,86.54
2022-09-10T04:23:47.227Z,86.49
2022-09-10T04:26:20.069Z,86.61
2022-09-10T04:28:49.608Z,86.41
2022-09-10T04:31:17.948Z,86.43
2022-09-10T04:33:46.001Z,86.38
2022-09-10T04:36:14.352Z,86.34
2022-09-10T04:38:42.961Z,86.23
2022-09-10T04:41:15.051Z,86.18
2022-09-10T04:43:43.408Z,85.84
2022-09-10T04:46:11.776Z,85.67
2022-09-10T04:48:42.692Z,85.74
2022-09-10T04:51:17.188Z,85.66
2022-09-10T04:53:48.473Z,85.95
2022-09-10T04:56:18.273Z,85.82
2022-09-10T04:58:48.132Z,85.97
2022-09-10T05:01:18.589Z,86.22
2022-09-10T05:03:48.947Z,85.80
2022-09-10T05:06:16.851Z,85.89
2022-09-10T05:08:46.677Z,85.80
2022-09-10T05:11:14.355Z,85.79
2022-09-10T05:13:44.103Z,85.73
2022-09-10T05:16:13.254Z,85.63
2022-09-10T05:18:41.084Z,85.66
2022-09-10T05:21:12.371Z,85.78
2022-09-10T05:23:41.790Z,85.97
2022-09-10T05:26:09.737Z,85.96
2022-09-10T05:28:40.359Z,86.05
2022-09-10T05:31:09.732Z,85.83
2022-09-10T05:33:40.202Z,85.94
2022-09-10T05:36:11.554Z,86.04
2022-09-10T05:38:41.023Z,86.01
2022-09-10T05:41:10.196Z,86.15
2022-09-10T05:43:41.421Z,86.31
2022-09-10T05:46:10.395Z,86.27
2022-09-10T05:48:41.736Z,86.27
2022-09-10T05:51:11.195Z,86.44
2022-09-10T05:53:41.040Z,86.57
2022-09-10T05:56:08.718Z,86.61
2022-09-10T05:58:36.936Z,86.44
2022-09-10T06:01:04.582Z,86.54
2022-09-10T06:03:32.950Z,86.55
2022-09-10T06:06:02.271Z,86.44
2022-09-10T06:08:35.251Z,86.55
2022-09-10T06:11:10.190Z,86.54
2022-09-10T06:13:42.668Z,86.55
2022-09-10T06:16:12.210Z,86.53
2022-09-10T06:18:41.634Z,86.37
2022-09-10T06:21:17.577Z,86.44
2022-09-10T06:23:47.446Z,86.49
2022-09-10T06:26:18.048Z,86.43
2022-09-10T06:28:47.204Z,86.49
2022-09-10T06:31:17.520Z,86.60
2022-09-10T06:33:46.541Z,86.70
2022-09-10T06:36:15.512Z,86.59
2022-09-10T06:38:46.326Z,86.20
2022-09-10T06:41:49.028Z,86.00
2022-09-10T06:44:40.526Z,85.49
2022-09-10T06:50:09.767Z,85.31
2022-09-10T06:52:39.633Z,85.17
2022-09-10T06:55:14.429Z,84.88
2022-09-10T06:57:45.068Z,84.74
2022-09-10T07:00:15.034Z,84.79
2022-09-10T07:02:45.429Z,84.68
2022-09-10T07:05:12.900Z,84.65
2022-09-10T07:07:42.058Z,84.73
2022-09-10T07:10:09.699Z,84.56
2022-09-10T07:12:38.636Z,84.39
2022-09-10T07:15:08.312Z,84.53
2022-09-10T07:17:36.128Z,84.19
2022-09-10T07:20:04.416Z,83.81
2022-09-10T07:22:46.831Z,83.97
2022-09-10T07:25:15.465Z,83.55
2022-09-10T07:28:02.635Z,83.11
2022-09-10T07:30:33.494Z,83.14
2022-09-10T07:33:01.318Z,82.70
2022-09-10T07:35:31.715Z,82.39
2022-09-10T07:37:59.716Z,82.82
2022-09-10T07:40:28.198Z,82.30
2022-09-10T07:42:56.942Z,81.92
2022-09-10T07:45:25.608Z,81.83
2022-09-10T07:47:53.482Z,81.53
2022-09-10T07:50:21.071Z,81.13
2022-09-10T07:52:52.488Z,80.82
2022-09-10T07:55:20.820Z,80.56
2022-09-10T07:57:48.136Z,80.10
2022-09-10T08:00:16.460Z,79.51
2022-09-10T08:02:46.895Z,78.96
2022-09-10T08:05:18.179Z,79.08
2022-09-10T08:07:46.173Z,78.90
2022-09-10T08:10:13.952Z,78.40
2022-09-10T08:12:43.221Z,77.95
2022-09-10T08:15:11.571Z,78.03
2022-09-10T08:17:39.804Z,77.68
2022-09-10T08:20:09.557Z,77.56
2022-09-10T08:22:38.049Z,77.32
2022-09-10T08:25:06.557Z,77.24
2022-09-10T08:27:34.713Z,77.18
2022-09-10T08:30:05.240Z,76.83
2022-09-10T08:32:35.774Z,76.86
2022-09-10T08:35:05.482Z,76.73
2022-09-10T08:37:33.795Z,76.33
2022-09-10T08:40:04.988Z,76.62
2022-09-10T08:42:49.758Z,76.78
2022-09-10T08:45:23.013Z,76.51
2022-09-10T08:48:23.724Z,77.05
2022-09-10T08:51:04.287Z,76.35
2022-09-10T08:53:59.386Z,75.98
2022-09-10T08:56:27.711Z,75.57
2022-09-10T08:59:34.953Z,75.68
2022-09-10T09:02:49.576Z,75.43
2022-09-10T09:05:22.432Z,75.11
2022-09-10T09:07:52.198Z,75.12
2022-09-10T09:10:25.720Z,75.29
2022-09-10T09:13:42.105Z,74.76
2022-09-10T09:16:53.352Z,74.19
2022-09-10T09:19:53.629Z,73.71
2022-09-10T09:22:51.167Z,73.78
2022-09-10T09:25:27.504Z,73.25
2022-09-10T09:27:58.671Z,73.29
2022-09-10T09:30:37.680Z,72.80
2022-09-10T09:33:28.500Z,72.76
2022-09-10T09:36:02.699Z,72.36
2022-09-10T09:38:44.243Z,72.37
2022-09-10T09:41:32.041Z,71.56
2022-09-10T09:44:23.957Z,71.48
2022-09-10T09:46:51.973Z,71.49
2022-09-10T09:49:20.646Z,71.23
2022-09-10T09:51:51.558Z,71.47
2022-09-10T09:55:10.001Z,71.01
2022-09-10T09:57:20.158Z,70.87
2022-09-10T09:59:49.343Z,70.40
2022-09-10T10:02:23.186Z,71.21
2022-09-10T10:05:24.563Z,71.57
2022-09-10T10:07:52.134Z,71.55
2022-09-10T10:10:25.506Z,71.47
2022-09-10T10:12:54.673Z,71.51
2022-09-10T10:15:44.059Z,71.44
2022-09-10T10:18:34.934Z,71.71
2022-09-10T10:21:23.128Z,71.62
2022-09-10T10:23:50.425Z,72.08
2022-09-10T10:26:20.813Z,72.27
2022-09-10T10:29:05.934Z,72.31
2022-09-10T10:31:45.640Z,72.41
2022-09-10T10:34:36.993Z,72.44
2022-09-10T10:37:36.081Z,72.52
2022-09-10T10:40:18.451Z,72.45
2022-09-10T10:43:30.567Z,71.48
2022-09-10T10:46:24.992Z,72.18
2022-09-10T10:49:12.715Z,72.21
2022-09-10T10:52:00.603Z,72.33
2022-09-10T10:54:37.070Z,72.46
2022-09-10T10:57:28.857Z,72.03
2022-09-10T11:00:12.488Z,72.31
2022-09-10T11:03:09.827Z,72.20
2022-09-10T11:06:07.374Z,72.37
2022-09-10T11:09:00.847Z,72.07
2022-09-10T11:11:31.298Z,71.75
2022-09-10T11:14:22.630Z,71.35
2022-09-10T11:16:58.702Z,71.16
2022-09-10T11:20:17.659Z,71.09
2022-09-10T11:22:55.211Z,70.98
2022-09-10T11:25:40.240Z,70.77
2022-09-10T11:28:23.912Z,70.42
2022-09-10T11:31:02.103Z,70.77
2022-09-10T11:33:39.113Z,71.16
2022-09-10T11:36:24.766Z,70.92
2022-09-10T11:39:17.170Z,71.00
2022-09-10T11:41:47.626Z,70.85
2022-09-10T11:44:39.913Z,71.08
2022-09-10T11:47:25.168Z,70.73
2022-09-10T11:50:21.895Z,71.25
2022-09-10T11:52:50.038Z,71.14
2022-09-10T11:55:17.780Z,71.58
2022-09-10T11:58:04.487Z,71.51
2022-09-10T12:00:40.898Z,71.33
2022-09-10T12:03:51.553Z,71.25
2022-09-10T12:06:32.853Z,71.46
2022-09-10T12:09:23.763Z,71.32
2022-09-10T12:12:26.373Z,71.28
2022-09-10T12:14:53.965Z,70.78
2022-09-10T12:17:33.043Z,71.36
2022-09-10T12:20:02.188Z,71.90
2022-09-10T12:22:37.005Z,71.18
2022-09-10T12:25:18.029Z,70.71
2022-09-10T12:27:58.658Z,71.07
2022-09-10T12:30:30.364Z,71.00
2022-09-10T12:33:02.744Z,71.17
2022-09-10T12:35:30.877Z,70.80
2022-09-10T12:38:41.951Z,70.86
2022-09-10T12:41:14.291Z,70.87
2022-09-10T12:43:41.953Z,71.32
2022-09-10T12:46:09.519Z,71.05
2022-09-10T12:48:41.180Z,71.76
2022-09-10T12:51:18.072Z,71.59
2022-09-10T12:54:04.042Z,70.57
2022-09-10T12:57:03.310Z,70.30
2022-09-10T13:00:17.699Z,70.59
2022-09-10T13:03:08.227Z,70.18
2022-09-10T13:05:44.968Z,69.91
2022-09-10T13:08:25.349Z,70.07
2022-09-10T13:10:59.030Z,71.22
2022-09-10T13:13:39.403Z,70.45
2022-09-10T13:16:26.141Z,69.61
2022-09-10T13:19:13.854Z,69.82
2022-09-10T13:21:44.199Z,69.53
2022-09-10T13:24:34.062Z,69.84
2022-09-10T13:27:17.171Z,69.00
2022-09-10T13:29:51.545Z,69.54
2022-09-10T13:32:28.264Z,69.73
2022-09-10T13:35:21.194Z,70.09
2022-09-10T13:38:16.653Z,70.00
2022-09-10T13:41:19.124Z,69.81
2022-09-10T13:44:38.828Z,70.18
2022-09-10T13:47:15.065Z,70.25
2022-09-10T13:49:55.571Z,70.28
2022-09-10T13:52:29.498Z,70.47
2022-09-10T13:54:58.228Z,70.45
2022-09-10T13:57:35.063Z,70.51
2022-09-10T14:00:17.311Z,70.42
2022-09-10T14:02:50.401Z,70.08
2022-09-10T14:05:37.738Z,70.81
2022-09-10T14:08:25.155Z,70.70
2022-09-10T14:11:18.897Z,70.75
2022-09-10T14:13:58.029Z,70.24
2022-09-10T14:16:49.754Z,70.54
2022-09-10T14:19:26.625Z,70.47
2022-09-10T14:21:57.215Z,70.05
2022-09-10T14:24:33.301Z,69.92
2022-09-10T14:27:30.874Z,70.10
2022-09-10T14:30:29.043Z,70.40
2022-09-10T14:33:29.543Z,70.55
2022-09-10T14:35:58.757Z,70.57
2022-09-10T14:38:37.715Z,70.56
2022-09-10T14:41:24.345Z,70.66
2022-09-10T14:44:23.899Z,70.32
2022-09-10T14:46:53.593Z,70.62
2022-09-10T14:49:29.620Z,70.74
2022-09-10T14:51:58.567Z,70.76
2022-09-10T14:54:27.396Z,70.44
2022-09-10T14:57:04.349Z,70.71
2022-09-10T14:59:41.578Z,71.24
2022-09-10T15:02:21.544Z,70.53
2022-09-10T15:04:49.982Z,70.78
2022-09-10T15:07:17.785Z,70.93
2022-09-10T15:09:46.551Z,70.49
2022-09-10T15:12:28.245Z,71.10
2022-09-10T15:14:57.705Z,71.03
2022-09-10T15:17:26.845Z,70.98
2022-09-10T15:19:55.464Z,70.49
2022-09-10T15:22:29.110Z,71.04
2022-09-10T15:25:09.765Z,70.73
2022-09-10T15:27:37.957Z,70.82
2022-09-10T15:30:06.857Z,70.81
2022-09-10T15:32:34.339Z,71.04
2022-09-10T15:35:02.923Z,70.87
2022-09-10T15:37:33.589Z,70.97
2022-09-10T15:40:01.399Z,70.43
2022-09-10T15:42:31.118Z,70.32
2022-09-10T15:44:58.902Z,70.16
2022-09-10T15:47:27.048Z,70.70
2022-09-10T15:49:54.680Z,70.75
2022-09-10T15:52:22.134Z,71.14
2022-09-10T15:54:49.445Z,71.31
2022-09-10T15:57:16.949Z,71.42
2022-09-10T15:59:44.513Z,71.39
2022-09-10T16:02:14.942Z,71.52
2022-09-10T16:04:43.239Z,71.14
2022-09-10T16:07:11.654Z,71.11
2022-09-10T16:09:39.644Z,71.29
2022-09-10T16:12:07.212Z,71.37
2022-09-10T16:14:34.709Z,71.73
2022-09-10T16:17:09.753Z,72.01
2022-09-10T16:19:39.527Z,71.92
2022-09-10T16:22:07.752Z,71.78
2022-09-10T16:24:35.274Z,71.68
2022-09-10T16:27:02.819Z,71.33
2022-09-10T16:29:32.130Z,71.42
2022-09-10T16:31:59.897Z,71.65
2022-09-10T16:34:27.581Z,71.48
2022-09-10T16:36:54.955Z,71.52
2022-09-10T16:39:22.779Z,71.69
2022-09-10T16:41:50.713Z,72.00
2022-09-10T16:44:18.699Z,72.05
2022-09-10T16:46:47.041Z,71.83
2022-09-10T16:49:17.878Z,72.10
2022-09-10T16:51:48.565Z,72.08
2022-09-10T16:54:20.449Z,72.14
2022-09-10T16:56:48.414Z,72.99
2022-09-10T16:59:21.713Z,73.02
2022-09-10T17:01:51.314Z,72.25
2022-09-10T17:04:27.505Z,71.11
2022-09-10T17:06:57.141Z,70.36
2022-09-10T17:09:25.466Z,70.08
2022-09-10T17:11:52.912Z,69.39
2022-09-10T17:14:20.320Z,68.36
2022-09-10T17:16:48.258Z,68.50
2022-09-10T17:19:22.878Z,71.20
2022-09-10T17:21:52.635Z,75.21
2022-09-10T17:24:24.398Z,79.66
2022-09-10T17:26:54.664Z,82.96
2022-09-10T17:29:24.680Z,84.38
2022-09-10T17:31:52.361Z,86.28
2022-09-10T17:34:21.001Z,87.76
2022-09-10T17:36:49.016Z,88.79
2022-09-10T17:39:16.969Z,90.11
2022-09-10T17:41:44.712Z,91.09
2022-09-10T17:44:13.148Z,91.84
2022-09-10T17:46:44.799Z,92.59
2022-09-10T17:49:21.236Z,93.15
2022-09-10T17:51:48.574Z,94.00
2022-09-10T17:54:15.901Z,93.88
2022-09-10T17:56:43.507Z,93.98
2022-09-10T17:59:15.947Z,94.48
2022-09-10T18:01:43.239Z,95.28
2022-09-10T18:04:15.263Z,95.87
2022-09-10T18:06:43.878Z,96.01
2022-09-10T18:09:14.367Z,96.23
2022-09-10T18:11:42.373Z,96.55
2022-09-10T18:14:17.330Z,97.02
2022-09-10T18:16:50.754Z,97.17
2022-09-10T18:19:18.487Z,97.31
2022-09-10T18:21:46.925Z,97.57
2022-09-10T18:24:23.574Z,97.78
2022-09-10T18:26:53.365Z,97.89
2022-09-10T18:29:27.386Z,97.64
2022-09-10T18:32:00.503Z,97.61
2022-09-10T18:34:30.538Z,97.50
2022-09-10T18:37:00.792Z,97.80
2022-09-10T18:39:33.451Z,97.76
2022-09-10T18:42:01.167Z,97.66
2022-09-10T18:44:35.979Z,97.92
2022-09-10T18:47:14.262Z,98.19
2022-09-10T18:49:50.954Z,98.34
2022-09-10T18:52:18.330Z,98.24
2022-09-10T18:54:48.139Z,98.39
2022-09-10T18:57:16.071Z,98.39
2022-09-10T18:59:43.600Z,98.56
2022-09-10T19:02:15.067Z,98.59
2022-09-10T19:05:07.438Z,98.72
2022-09-10T19:07:30.011Z,98.79
2022-09-10T19:09:59.692Z,98.83
2022-09-10T19:12:26.990Z,98.92
2022-09-10T19:14:54.370Z,98.90
2022-09-10T19:17:21.744Z,98.98
2022-09-10T19:19:49.713Z,99.01
2022-09-10T19:22:17.737Z,99.30
2022-09-10T19:24:54.672Z,99.26
2022-09-10T19:27:23.937Z,99.23
2022-09-10T19:29:51.263Z,99.09
2022-09-10T19:32:21.786Z,99.21
2022-09-10T19:35:01.343Z,99.33
2022-09-10T19:37:28.868Z,99.17
2022-09-10T19:39:57.025Z,99.57
2022-09-10T19:42:24.387Z,99.89
2022-09-10T19:44:51.899Z,99.85
2022-09-10T19:47:19.931Z,99.70
2022-09-10T19:49:47.889Z,99.52
2022-09-10T19:52:16.491Z,99.47
2022-09-10T19:54:45.886Z,99.76
2022-09-10T19:57:15.599Z,99.88
2022-09-10T19:59:49.922Z,100.00
2022-09-10T20:02:18.263Z,100.00
2022-09-10T20:04:45.732Z,99.96
2022-09-10T20:07:13.065Z,99.89
2022-09-10T20:09:40.307Z,99.82
2022-09-10T20:12:08.820Z,99.77
2022-09-10T20:14:39.365Z,99.87
2022-09-10T20:17:06.875Z,99.82
2022-09-10T20:19:34.168Z,99.74
2022-09-10T20:22:01.585Z,99.63
2022-09-10T20:24:29.162Z,99.34
2022-09-10T20:26:57.217Z,99.62
2022-09-10T20:29:25.045Z,99.78
2022-09-10T20:31:53.721Z,99.46
2022-09-10T20:34:24.248Z,99.33
2022-09-10T20:36:52.276Z,99.33
2022-09-10T20:39:23.554Z,99.32
2022-09-10T20:41:50.633Z,99.41
2022-09-10T20:44:19.546Z,99.60
2022-09-10T20:46:48.791Z,99.84
2022-09-10T20:49:17.081Z,99.96
2022-09-10T20:51:45.066Z,99.74
2022-09-10T20:54:17.142Z,99.95
2022-09-10T20:56:45.492Z,99.94
2022-09-10T20:59:15.025Z,99.99
2022-09-10T21:01:44.026Z,100.00
2022-09-10T21:04:12.446Z,100.00
2022-09-10T21:06:40.189Z,100.00
2022-09-10T21:09:07.488Z,100.00
2022-09-10T21:11:35.811Z,100.00
2022-09-10T21:14:06.504Z,100.00
2022-09-10T21:16:37.259Z,100.00
2022-09-10T21:19:08.781Z,100.00
2022-09-10T21:21:36.864Z,100.00
2022-09-10T21:24:12.950Z,100.00
2022-09-10T21:26:42.834Z,100.00
2022-09-10T21:29:19.377Z,100.00
2022-09-10T21:31:49.971Z,100.00
2022-09-10T21:34:18.892Z,100.00
2022-09-10T21:36:46.682Z,100.00
2022-09-10T21:39:16.695Z,100.00
2022-09-10T21:41:47.698Z,100.00
2022-09-10T21:44:21.530Z,100.00
2022-09-10T21:46:50.144Z,100.00
2022-09-10T21:49:18.380Z,99.79
2022-09-10T21:51:46.282Z,99.43
2022-09-10T21:54:23.724Z,99.32
2022-09-10T21:56:51.717Z,99.10
2022-09-10T21:59:20.817Z,98.99
2022-09-10T22:01:48.746Z,98.86
2022-09-10T22:04:22.074Z,98.94
2022-09-10T22:06:51.398Z,98.83
2022-09-10T22:09:20.149Z,98.61
2022-09-10T22:11:51.379Z,98.61
2022-09-10T22:14:23.363Z,98.55
2022-09-10T22:16:52.072Z,98.73
2022-09-10T22:19:25.351Z,98.50
2022-09-10T22:21:56.933Z,98.51
2022-09-10T22:24:25.593Z,98.54
2022-09-10T22:26:52.939Z,98.72
2022-09-10T22:29:20.406Z,98.89
2022-09-10T22:31:49.166Z,98.93
2022-09-10T22:34:17.813Z,99.25
2022-09-10T22:36:46.854Z,99.32
2022-09-10T22:39:18.147Z,99.40
2022-09-10T22:41:46.557Z,99.67
2022-09-10T22:44:14.622Z,99.71
2022-09-10T22:46:42.526Z,99.73
2022-09-10T22:49:10.326Z,99.69
2022-09-10T22:51:40.636Z,99.74
2022-09-10T22:54:10.161Z,99.82
2022-09-10T22:56:37.814Z,99.54
2022-09-10T22:59:05.969Z,99.81
2022-09-10T23:01:36.428Z,99.85
2022-09-10T23:04:05.779Z,99.86
2022-09-10T23:06:36.156Z,99.81
2022-09-10T23:09:17.718Z,99.57
2022-09-10T23:11:45.632Z,99.74
2022-09-10T23:14:18.568Z,99.60
2022-09-10T23:16:48.722Z,99.50
2022-09-10T23:19:19.924Z,99.51
2022-09-10T23:21:53.480Z,99.46
2022-09-10T23:24:24.067Z,99.35
2022-09-10T23:26:52.787Z,99.29
2022-09-10T23:29:22.554Z,99.35
2022-09-10T23:31:53.088Z,99.49
2022-09-10T23:34:21.168Z,99.47
2022-09-10T23:36:49.774Z,99.27
2022-09-10T23:39:20.517Z,99.40
2022-09-10T23:41:50.070Z,99.18
2022-09-10T23:44:18.173Z,99.27
2022-09-10T23:46:48.573Z,99.30
2022-09-10T23:49:16.522Z,99.21
2022-09-10T23:51:44.269Z,99.20
2022-09-10T23:54:11.866Z,99.43
2022-09-10T23:56:39.620Z,99.33
2022-09-10T23:59:10.068Z,99.42
